Time;durP1;ratioP1;P1;durP2;ratioP2;P2;SDS_P1;SDS_P2;PMS_P1;PMS_P2;Temp;Humidity;BMP_temperature;BMP_pressure;BME280_temperature;BME280_humidity;BME280_pressure;Samples;Min_cycle;Max_cycle;Signal;HPM_P1;HPM_P2
2022/05/10 04:06:33;;;;;;;22.37;20.27;;;8.30;99.90;;;;;;4961250;23;20264;-76
2022/05/10 04:09:02;;;;;;;20.60;18.60;;;8.30;99.90;;;;;;4877709;29;20236;-75
2022/05/10 04:11:30;;;;;;;20.80;18.70;;;8.30;99.90;;;;;;4884049;29;20266;-79
2022/05/10 04:13:58;;;;;;;21.07;19.17;;;8.30;99.90;;;;;;4884322;29;20210;-78
2022/05/10 04:16:26;;;;;;;22.03;19.93;;;8.30;99.90;;;;;;4898438;29;20289;-79
2022/05/10 04:18:54;;;;;;;21.60;19.60;;;8.30;99.90;;;;;;4886620;29;20222;-79
2022/05/10 04:21:23;;;;;;;21.43;18.77;;;8.40;99.90;;;;;;4880744;29;20266;-79
2022/05/10 04:23:53;;;;;;;20.17;18.17;;;8.40;99.90;;;;;;4846009;29;20326;-78
2022/05/10 04:26:21;;;;;;;20.47;18.33;;;8.50;99.90;;;;;;4853790;29;20294;-78
2022/05/10 04:28:49;;;;;;;19.50;17.47;;;8.60;99.90;;;;;;4861408;29;20317;-78
2022/05/10 04:31:17;;;;;;;18.70;16.90;;;8.50;99.90;;;;;;4854524;29;20246;-78
2022/05/10 04:33:45;;;;;;;18.80;17.00;;;8.60;99.90;;;;;;4861247;29;20305;-78
2022/05/10 04:36:14;;;;;;;18.90;17.10;;;8.60;99.90;;;;;;4861914;29;20265;-76
2022/05/10 04:38:45;;;;;;;19.03;17.10;;;8.60;99.90;;;;;;4861612;29;20214;-75
2022/05/10 04:41:24;;;;;;;17.60;16.07;;;8.70;99.90;;;;;;4851994;29;20224;-75
2022/05/10 04:43:57;;;;;;;18.67;16.90;;;8.70;99.90;;;;;;4842347;29;20219;-76
2022/05/10 04:46:26;;;;;;;18.33;16.53;;;8.70;99.90;;;;;;4839362;29;20223;-76
2022/05/10 04:48:54;;;;;;;17.63;15.90;;;8.80;99.90;;;;;;4843025;29;20247;-75
2022/05/10 04:51:22;;;;;;;18.00;16.30;;;8.90;99.90;;;;;;4843172;29;20256;-76
2022/05/10 04:53:53;;;;;;;17.93;16.20;;;8.90;99.90;;;;;;4843388;29;20250;-75
2022/05/10 04:56:26;;;;;;;17.33;15.63;;;9.00;99.90;;;;;;4842691;29;20762;-77
2022/05/10 04:58:55;;;;;;;16.63;15.03;;;9.10;99.90;;;;;;4843069;29;20315;-75
2022/05/10 05:01:26;;;;;;;16.03;14.50;;;9.20;99.90;;;;;;4842649;29;20255;-77
2022/05/10 05:03:56;;;;;;;15.93;14.33;;;9.20;99.90;;;;;;4841614;29;20678;-76
2022/05/10 05:06:25;;;;;;;14.90;13.40;;;9.30;99.90;;;;;;4842417;29;20269;-76
2022/05/10 05:08:53;;;;;;;15.53;14.07;;;9.40;99.90;;;;;;4841856;29;20256;-75
2022/05/10 05:11:21;;;;;;;15.77;14.13;;;9.40;99.90;;;;;;4839348;29;20661;-79
2022/05/10 05:13:51;;;;;;;15.00;13.60;;;9.50;99.90;;;;;;4840447;29;20204;-78
2022/05/10 05:16:19;;;;;;;14.63;13.37;;;9.60;99.90;;;;;;4841021;29;20247;-77
2022/05/10 05:18:48;;;;;;;14.50;13.10;;;9.60;99.90;;;;;;4841672;29;20651;-77
2022/05/10 05:21:16;;;;;;;14.50;13.20;;;9.70;99.90;;;;;;4851704;29;20943;-76
2022/05/10 05:23:45;;;;;;;13.80;12.40;;;9.80;99.90;;;;;;4859882;29;20221;-76
2022/05/10 05:26:14;;;;;;;14.50;12.97;;;9.90;99.90;;;;;;4860720;29;20257;-78
2022/05/10 05:28:42;;;;;;;14.43;12.90;;;10.00;99.90;;;;;;4860414;29;20219;-78
2022/05/10 05:31:14;;;;;;;15.27;12.83;;;10.20;99.90;;;;;;4859741;29;20375;-79
2022/05/10 05:33:42;;;;;;;13.70;12.13;;;10.20;99.90;;;;;;4842611;29;20206;-77
2022/05/10 05:36:10;;;;;;;13.57;12.10;;;10.30;99.90;;;;;;4843130;29;20292;-78
2022/05/10 05:38:38;;;;;;;12.93;11.73;;;10.50;99.90;;;;;;4842304;29;20215;-77
2022/05/10 05:41:06;;;;;;;12.43;11.17;;;10.60;99.90;;;;;;4841709;29;20283;-75
2022/05/10 05:43:36;;;;;;;12.00;10.57;;;10.80;99.90;;;;;;4842112;29;20241;-78
2022/05/10 05:46:05;;;;;;;11.33;10.10;;;10.90;99.90;;;;;;4842701;29;20261;-79
2022/05/10 05:48:35;;;;;;;10.70;9.23;;;11.10;99.90;;;;;;4842126;29;20322;-75
2022/05/10 05:51:03;;;;;;;10.87;9.53;;;11.40;99.90;;;;;;4842924;29;20302;-76
2022/05/10 05:53:31;;;;;;;9.43;7.40;;;12.00;99.90;;;;;;4842756;29;20224;-78
2022/05/10 05:56:04;;;;;;;8.83;6.43;;;13.00;99.90;;;;;;4842733;29;20334;-79
2022/05/10 05:58:32;;;;;;;10.33;6.23;;;14.60;99.90;;;;;;4844488;29;20211;-77
2022/05/10 06:01:00;;;;;;;9.03;5.70;;;16.30;99.90;;;;;;4842416;29;20227;-76
2022/05/10 06:03:28;;;;;;;8.90;5.70;;;18.00;99.90;;;;;;4842962;29;20648;-77
2022/05/10 06:05:57;;;;;;;7.20;5.57;;;19.10;99.90;;;;;;4842031;29;20319;-80
2022/05/10 06:08:26;;;;;;;8.07;4.93;;;20.50;99.90;;;;;;4841735;29;20267;-79
2022/05/10 06:10:55;;;;;;;5.40;4.50;;;21.50;99.90;;;;;;4841567;29;20259;-76
2022/05/10 06:13:24;;;;;;;7.33;4.73;;;22.20;99.90;;;;;;4842168;29;20229;-78
2022/05/10 06:15:51;;;;;;;5.93;4.60;;;22.30;99.90;;;;;;4841606;29;20246;-77
2022/05/10 06:18:20;;;;;;;4.50;4.10;;;22.60;99.90;;;;;;4841766;29;20262;-76
2022/05/10 06:20:49;;;;;;;5.23;4.20;;;22.90;99.90;;;;;;4850744;29;20238;-77
2022/05/10 06:23:18;;;;;;;5.13;4.03;;;23.10;99.90;;;;;;4851762;29;20219;-77
2022/05/10 06:25:47;;;;;;;6.22;4.30;;;23.70;99.90;;;;;;4841335;29;20262;-76
2022/05/10 06:28:15;;;;;;;5.15;3.83;;;23.40;99.80;;;;;;4843616;29;20270;-75
2022/05/10 06:30:44;;;;;;;4.65;3.60;;;23.80;99.90;;;;;;4842702;29;20242;-76
2022/05/10 06:33:14;;;;;;;5.90;3.78;;;24.60;99.60;;;;;;4844030;29;20501;-75
2022/05/10 06:35:43;;;;;;;9.23;3.90;;;25.30;98.40;;;;;;4844520;29;20298;-76
2022/05/10 06:38:16;;;;;;;5.80;3.35;;;25.90;97.40;;;;;;4843110;29;20203;-76
2022/05/10 06:40:46;;;;;;;4.50;3.42;;;26.50;94.90;;;;;;4842843;29;20739;-76
2022/05/10 06:43:16;;;;;;;4.57;3.53;;;26.30;94.50;;;;;;4842590;29;20219;-75
2022/05/10 06:45:45;;;;;;;4.13;3.70;;;26.20;94.30;;;;;;4843389;29;20219;-76
2022/05/10 06:48:13;;;;;;;4.75;3.60;;;26.80;93.20;;;;;;4844095;29;20299;-77
2022/05/10 06:50:43;;;;;;;3.63;3.17;;;27.10;92.20;;;;;;4842884;29;20268;-75
2022/05/10 06:53:12;;;;;;;5.88;3.70;;;27.20;92.40;;;;;;4844458;29;20219;-76
2022/05/10 06:55:41;;;;;;;6.40;3.58;;;27.80;92.30;;;;;;4848203;29;20662;-77
2022/05/10 06:58:12;;;;;;;5.65;3.55;;;28.90;90.00;;;;;;4848982;29;20251;-75
2022/05/10 07:00:42;;;;;;;5.20;4.32;;;28.70;86.50;;;;;;4850290;29;20224;-75
2022/05/10 07:03:13;;;;;;;7.25;3.80;;;28.00;89.20;;;;;;4848008;29;20230;-74
2022/05/10 07:05:43;;;;;;;4.88;3.95;;;28.10;88.00;;;;;;4847177;29;20254;-77
2022/05/10 07:08:12;;;;;;;5.00;3.60;;;28.10;88.60;;;;;;4847278;29;20212;-75
2022/05/10 07:10:40;;;;;;;4.85;3.60;;;28.30;86.80;;;;;;4845377;29;20219;-74
2022/05/10 07:13:09;;;;;;;5.57;4.03;;;28.90;85.60;;;;;;4844455;29;20632;-76
2022/05/10 07:15:38;;;;;;;4.80;3.72;;;28.90;84.80;;;;;;4844614;29;20252;-75
2022/05/10 07:18:07;;;;;;;4.85;3.80;;;28.70;83.40;;;;;;4844835;29;20239;-75
2022/05/10 07:20:35;;;;;;;4.72;3.60;;;29.10;84.10;;;;;;4852395;29;20227;-76
2022/05/10 07:23:03;;;;;;;5.22;3.40;;;29.90;82.00;;;;;;4844537;29;20284;-77
2022/05/10 07:25:31;;;;;;;8.70;3.78;;;29.70;81.00;;;;;;4844036;29;20306;-76
2022/05/10 07:28:00;;;;;;;5.78;4.35;;;29.50;80.10;;;;;;4845010;29;20284;-75
2022/05/10 07:30:30;;;;;;;7.22;3.75;;;28.90;83.10;;;;;;4845308;29;20310;-75
2022/05/10 07:33:00;;;;;;;5.40;3.38;;;29.50;80.40;;;;;;4844353;29;20747;-74
2022/05/10 07:38:17;;;;;;;6.45;3.97;;;29.50;82.30;;;;;;4844939;29;20290;-73
2022/05/10 07:40:48;;;;;;;4.82;4.40;;;30.10;79.00;;;;;;4844909;29;20278;-75
2022/05/10 07:43:17;;;;;;;4.95;3.63;;;29.50;81.10;;;;;;4845040;29;20215;-75
2022/05/10 07:45:47;;;;;;;5.93;3.80;;;30.20;80.10;;;;;;4844935;29;20622;-76
2022/05/10 07:48:17;;;;;;;6.68;4.10;;;29.60;79.40;;;;;;4845058;29;20250;-75
2022/05/10 07:50:45;;;;;;;4.70;3.83;;;28.90;79.90;;;;;;4844687;29;20314;-76
2022/05/10 07:53:14;;;;;;;6.07;4.07;;;29.10;81.60;;;;;;4846381;29;20212;-75
2022/05/10 07:55:44;;;;;;;6.50;3.78;;;29.50;80.70;;;;;;4844838;29;20211;-77
2022/05/10 07:58:13;;;;;;;8.27;3.75;;;29.70;80.50;;;;;;4845629;29;20215;-75
2022/05/10 08:00:42;;;;;;;6.28;3.80;;;29.50;80.00;;;;;;4844452;29;20270;-75
2022/05/10 08:03:13;;;;;;;5.00;4.32;;;30.00;80.30;;;;;;4844583;29;20308;-76
2022/05/10 08:05:43;;;;;;;4.38;3.90;;;30.10;78.80;;;;;;4844261;29;20567;-76
2022/05/10 08:08:12;;;;;;;6.13;3.88;;;29.80;79.70;;;;;;4844074;29;20220;-77
2022/05/10 08:10:41;;;;;;;6.00;4.40;;;29.80;80.70;;;;;;4843304;29;20694;-74
2022/05/10 08:13:14;;;;;;;6.72;4.20;;;30.10;76.10;;;;;;4843794;29;20369;-76
2022/05/10 08:15:44;;;;;;;4.05;3.33;;;30.50;77.70;;;;;;4843454;29;20298;-75
2022/05/10 08:18:13;;;;;;;6.63;4.07;;;30.60;78.10;;;;;;4843401;29;20216;-78
2022/05/10 08:20:43;;;;;;;6.00;4.05;;;30.40;76.70;;;;;;4843163;29;20263;-76
2022/05/10 08:23:15;;;;;;;4.43;4.03;;;30.20;77.10;;;;;;4843412;29;20623;-77
2022/05/10 08:25:44;;;;;;;4.70;4.10;;;30.80;76.40;;;;;;4843287;29;20737;-75
2022/05/10 08:28:14;;;;;;;5.38;4.28;;;30.30;78.10;;;;;;4843752;29;20222;-77
2022/05/10 08:30:43;;;;;;;5.35;4.20;;;29.30;81.30;;;;;;4844740;29;20192;-76
2022/05/10 08:33:12;;;;;;;3.70;3.40;;;29.50;79.00;;;;;;4843767;29;20264;-76
2022/05/10 08:35:43;;;;;;;4.05;3.45;;;30.20;77.80;;;;;;4845006;29;20195;-76
2022/05/10 08:38:12;;;;;;;4.80;4.20;;;30.40;74.00;;;;;;4844230;29;20219;-77
2022/05/10 08:40:44;;;;;;;5.10;3.47;;;30.80;73.40;;;;;;4843159;29;20280;-76
2022/05/10 08:43:18;;;;;;;5.25;4.30;;;30.40;72.10;;;;;;4843343;29;20235;-75
2022/05/10 08:45:47;;;;;;;4.72;4.15;;;30.30;77.90;;;;;;4843625;29;20698;-76
2022/05/10 08:48:16;;;;;;;15.52;14.05;;;30.30;79.10;;;;;;4843672;29;20319;-78
2022/05/10 08:50:49;;;;;;;7.47;4.28;;;30.80;74.70;;;;;;4843323;29;20273;-74
2022/05/10 08:53:19;;;;;;;4.78;4.10;;;31.00;72.80;;;;;;4843684;29;20268;-76
2022/05/10 08:55:51;;;;;;;5.50;3.78;;;29.30;75.20;;;;;;4842922;29;20310;-76
2022/05/10 08:58:47;;;;;;;4.68;3.90;;;29.90;76.30;;;;;;4842956;29;20302;-74
2022/05/10 09:01:42;;;;;;;6.15;4.20;;;30.60;74.40;;;;;;4842286;29;20674;-74
2022/05/10 09:04:31;;;;;;;4.43;3.85;;;31.20;72.80;;;;;;4842924;29;20260;-75
2022/05/10 09:07:12;;;;;;;4.90;3.80;;;31.10;73.40;;;;;;4842749;29;20219;-76
2022/05/10 09:09:53;;;;;;;4.82;3.85;;;31.70;72.70;;;;;;4842736;29;20214;-76
2022/05/10 09:12:23;;;;;;;6.85;3.80;;;31.80;70.10;;;;;;4842946;29;20199;-75
2022/05/10 09:14:58;;;;;;;4.50;4.00;;;32.30;69.50;;;;;;4842346;29;20286;-77
2022/05/10 09:17:29;;;;;;;4.18;3.78;;;32.00;68.60;;;;;;4841924;29;20234;-77
2022/05/10 09:19:58;;;;;;;5.07;4.50;;;31.20;72.00;;;;;;4842320;29;20274;-77
2022/05/10 09:23:14;;;;;;;4.72;4.00;;;30.70;72.30;;;;;;4842103;29;20306;-76
2022/05/10 09:25:45;;;;;;;5.05;3.88;;;30.30;78.10;;;;;;4841968;29;20200;-77
2022/05/10 09:28:25;;;;;;;6.28;4.32;;;30.90;74.30;;;;;;4842738;29;20490;-75
2022/05/10 09:36:27;;;;;;;6.55;3.75;;;31.00;70.60;;;;;;4841965;29;20200;-78
2022/05/10 09:39:01;;;;;;;6.80;4.50;;;30.40;75.20;;;;;;4841969;29;20642;-77
2022/05/10 09:41:43;;;;;;;5.57;4.90;;;31.20;75.10;;;;;;4841967;29;20736;-76
2022/05/10 09:44:20;;;;;;;6.57;4.22;;;29.80;73.10;;;;;;4842143;29;20283;-77
2022/05/10 09:46:48;;;;;;;5.85;4.55;;;30.80;76.90;;;;;;4842496;29;20235;-75
2022/05/10 09:49:35;;;;;;;5.47;4.40;;;31.50;72.20;;;;;;4842153;29;20280;-76
2022/05/10 09:52:05;;;;;;;6.72;5.18;;;29.50;78.00;;;;;;4842200;29;20292;-74
2022/05/10 09:54:38;;;;;;;8.75;5.30;;;28.30;80.00;;;;;;4842583;29;20307;-76
2022/05/10 09:57:10;;;;;;;7.00;5.05;;;27.00;81.20;;;;;;4842803;29;20204;-75
2022/05/10 09:59:43;;;;;;;7.18;5.05;;;26.30;83.70;;;;;;4841883;29;20200;-74
2022/05/10 10:02:25;;;;;;;7.70;5.20;;;26.50;83.50;;;;;;4844366;29;20257;-76
2022/05/10 10:04:53;;;;;;;5.97;5.20;;;25.70;87.10;;;;;;4846713;29;20253;-75
2022/05/10 10:07:25;;;;;;;6.20;5.60;;;24.80;91.40;;;;;;4842443;29;20298;-76
2022/05/10 10:09:57;;;;;;;5.90;5.27;;;24.20;91.00;;;;;;4841439;29;20199;-75
2022/05/10 10:12:36;;;;;;;8.13;5.83;;;23.80;93.40;;;;;;4841395;29;20244;-75
2022/05/10 10:15:21;;;;;;;8.35;5.00;;;25.00;92.50;;;;;;4841484;29;20203;-75
2022/05/10 10:17:53;;;;;;;7.35;5.70;;;26.30;91.50;;;;;;4841836;29;20269;-75
2022/05/10 10:20:32;;;;;;;6.90;5.90;;;25.90;91.00;;;;;;4841211;29;20314;-75
2022/05/10 10:23:07;;;;;;;10.48;5.45;;;25.40;90.90;;;;;;4841749;29;20211;-76
2022/05/10 10:25:42;;;;;;;7.28;5.35;;;25.90;91.60;;;;;;4841581;29;20236;-74
2022/05/10 10:28:20;;;;;;;6.65;5.43;;;27.10;87.30;;;;;;4842195;29;20658;-75
2022/05/10 10:30:54;;;;;;;8.88;5.50;;;28.50;86.00;;;;;;4845366;29;20256;-76
2022/05/10 10:33:30;;;;;;;8.30;6.32;;;29.00;84.30;;;;;;4845146;29;20704;-74
2022/05/10 10:36:03;;;;;;;7.78;5.03;;;29.80;77.60;;;;;;4844971;29;20203;-75
2022/05/10 10:38:42;;;;;;;6.97;5.07;;;30.00;76.90;;;;;;4845578;29;20200;-74
2022/05/10 10:41:15;;;;;;;6.18;5.57;;;30.10;76.50;;;;;;4845092;29;20224;-76
2022/05/10 10:43:55;;;;;;;6.57;5.82;;;29.00;74.90;;;;;;4844921;29;20258;-76
2022/05/10 10:46:29;;;;;;;6.03;5.18;;;29.30;74.80;;;;;;4844943;29;20246;-75
2022/05/10 10:49:04;;;;;;;5.72;4.70;;;29.10;79.10;;;;;;4844598;29;20318;-76
2022/05/10 10:51:35;;;;;;;6.88;4.93;;;28.20;80.70;;;;;;4845021;29;20215;-75
2022/05/10 10:54:08;;;;;;;6.10;4.95;;;26.90;83.70;;;;;;4844649;29;20291;-75
2022/05/10 10:56:49;;;;;;;6.45;4.90;;;26.60;86.90;;;;;;4845026;29;20290;-75
2022/05/10 10:59:51;;;;;;;5.82;4.65;;;26.70;86.80;;;;;;4845053;29;20282;-75
2022/05/10 11:02:38;;;;;;;5.03;4.50;;;27.80;86.20;;;;;;4833758;29;20299;-75
2022/05/10 11:05:20;;;;;;;5.45;4.72;;;28.90;80.50;;;;;;4844503;29;20230;-74
2022/05/10 11:07:59;;;;;;;7.72;4.88;;;29.20;78.60;;;;;;4843635;29;20682;-76
2022/05/10 11:10:39;;;;;;;5.43;4.82;;;29.20;80.90;;;;;;4843881;29;20199;-75
2022/05/10 11:13:19;;;;;;;6.82;4.20;;;29.00;81.80;;;;;;4847433;29;20846;-74
2022/05/10 11:15:58;;;;;;;5.10;4.32;;;29.40;78.40;;;;;;4844238;29;20215;-74
2022/05/10 11:18:37;;;;;;;6.05;4.57;;;29.80;79.20;;;;;;4844475;29;20222;-75
2022/05/10 11:21:19;;;;;;;4.93;4.30;;;29.80;78.10;;;;;;4844363;29;20292;-74
2022/05/10 11:23:57;;;;;;;7.32;4.85;;;29.80;77.80;;;;;;4843687;29;20666;-76
2022/05/10 11:26:40;;;;;;;5.25;3.92;;;29.60;75.90;;;;;;4844035;29;20216;-76
2022/05/10 11:29:27;;;;;;;8.18;4.47;;;29.20;75.70;;;;;;4843821;29;20204;-76
2022/05/10 11:32:06;;;;;;;7.88;6.22;;;28.30;79.40;;;;;;4845398;29;20204;-76
2022/05/10 11:34:50;;;;;;;6.90;5.45;;;27.80;84.20;;;;;;4844444;29;20261;-77
2022/05/10 11:37:25;;;;;;;6.82;4.93;;;27.20;85.10;;;;;;4844257;29;20211;-77
2022/05/10 11:40:11;;;;;;;9.75;5.50;;;27.10;86.20;;;;;;4843291;29;20203;-77
2022/05/10 11:42:53;;;;;;;5.40;4.57;;;26.80;83.80;;;;;;4843097;29;20707;-75
2022/05/10 11:45:49;;;;;;;7.53;4.63;;;26.50;83.90;;;;;;4843931;29;20235;-76
2022/05/10 11:48:44;;;;;;;5.80;4.33;;;26.60;84.60;;;;;;4843286;29;20239;-77
2022/05/10 11:51:42;;;;;;;6.53;4.50;;;27.10;85.60;;;;;;4841262;29;20302;-75
2022/05/10 11:54:38;;;;;;;7.17;4.47;;;27.40;83.60;;;;;;4844160;29;20199;-77
2022/05/10 11:57:11;;;;;;;6.73;5.40;;;27.40;81.40;;;;;;4844244;29;20299;-78
2022/05/10 11:59:41;;;;;;;7.40;5.57;;;27.10;78.90;;;;;;4844148;29;20238;-77
2022/05/10 12:02:46;;;;;;;8.20;5.00;;;26.90;80.00;;;;;;4844116;29;20312;-76
2022/05/10 12:05:24;;;;;;;4.93;4.30;;;26.80;81.80;;;;;;4844194;29;20230;-77
2022/05/10 12:07:53;;;;;;;6.63;5.17;;;26.90;83.40;;;;;;4844495;29;20620;-76
2022/05/10 12:10:42;;;;;;;6.40;5.40;;;25.60;82.30;;;;;;4843530;29;20208;-76
2022/05/10 12:13:12;;;;;;;5.97;5.30;;;26.00;87.50;;;;;;4843990;29;20679;-77
2022/05/10 12:21:54;;;;;;;5.37;4.27;;;26.50;82.50;;;;;;4846907;29;20647;-74
2022/05/10 12:24:34;;;;;;;7.33;5.23;;;26.70;81.50;;;;;;4844846;29;20231;-77
2022/05/10 12:27:34;;;;;;;5.77;4.60;;;26.40;78.80;;;;;;4844971;29;20628;-75
2022/05/10 12:30:10;;;;;;;6.87;4.90;;;26.10;84.00;;;;;;4846618;29;20242;-76
2022/05/10 12:32:44;;;;;;;5.03;4.53;;;26.10;84.60;;;;;;4845377;29;20216;-76
2022/05/10 12:35:21;;;;;;;6.03;4.90;;;26.40;84.30;;;;;;4844961;29;20264;-76
2022/05/10 12:38:00;;;;;;;6.63;4.23;;;26.00;84.90;;;;;;4844974;29;20202;-76
2022/05/10 12:40:51;;;;;;;5.27;4.40;;;26.10;79.00;;;;;;4844507;29;20210;-77
2022/05/10 12:43:48;;;;;;;6.37;4.67;;;26.40;79.70;;;;;;4845676;29;20298;-74
2022/05/10 12:46:45;;;;;;;2.50;2.20;;;26.40;79.80;;;;;;4844558;29;20269;-77
2022/05/10 12:49:29;;;;;;;4.30;2.20;;;26.60;68.20;;;;;;4830624;29;20653;-75
2022/05/10 12:52:19;;;;;;;2.67;2.30;;;26.70;63.50;;;;;;4847460;29;20283;-76
2022/05/10 12:54:55;;;;;;;3.60;2.37;;;26.80;67.00;;;;;;4847746;29;20224;-75
2022/05/10 12:57:31;;;;;;;3.23;2.20;;;26.70;62.50;;;;;;4848793;29;20223;-76
2022/05/10 13:00:07;;;;;;;2.40;2.20;;;26.70;65.60;;;;;;4848815;29;20203;-77
2022/05/10 13:02:37;;;;;;;3.73;2.50;;;26.70;62.60;;;;;;4848792;29;20219;-75
2022/05/10 13:05:14;;;;;;;2.70;2.03;;;26.90;67.70;;;;;;4849126;29;20263;-76
2022/05/10 13:08:30;;;;;;;4.67;2.10;;;26.60;61.00;;;;;;4850608;29;20349;-77
2022/05/10 13:11:23;;;;;;;3.63;2.70;;;26.70;66.00;;;;;;4793305;29;20316;-76
2022/05/10 13:13:54;;;;;;;4.83;2.40;;;26.90;63.40;;;;;;4794049;30;20224;-76
2022/05/10 13:16:23;;;;;;;3.47;2.03;;;26.90;63.40;;;;;;4831319;29;20219;-77
2022/05/10 13:18:53;;;;;;;5.40;2.30;;;26.80;63.50;;;;;;4851456;29;20212;-77
2022/05/10 13:21:26;;;;;;;4.70;2.33;;;27.00;64.30;;;;;;4851923;29;20211;-75
2022/05/10 13:23:56;;;;;;;3.50;3.00;;;26.80;60.00;;;;;;4853879;29;20211;-77
2022/05/10 13:26:26;;;;;;;4.43;3.50;;;26.80;70.60;;;;;;4853943;29;20251;-76
2022/05/10 13:28:56;;;;;;;4.20;3.20;;;26.60;75.00;;;;;;4853090;29;20227;-76
2022/05/10 13:31:27;;;;;;;4.10;3.43;;;26.60;73.60;;;;;;4847968;29;20296;-76
2022/05/10 13:34:11;;;;;;;3.93;3.17;;;26.50;69.90;;;;;;4847695;29;20291;-76
2022/05/10 13:36:46;;;;;;;4.03;2.97;;;26.70;67.80;;;;;;4846006;29;20226;-77
2022/05/10 13:39:18;;;;;;;5.37;3.00;;;26.70;70.90;;;;;;4845336;29;20200;-75
2022/05/10 13:41:48;;;;;;;7.23;3.20;;;26.60;73.70;;;;;;4846219;29;20310;-75
2022/05/10 13:44:19;;;;;;;4.70;3.17;;;26.50;71.90;;;;;;4844173;29;20314;-76
2022/05/10 13:46:50;;;;;;;4.63;2.77;;;26.40;70.20;;;;;;4843109;29;20298;-75
2022/05/10 13:49:21;;;;;;;5.17;3.40;;;26.30;72.40;;;;;;4843087;29;20322;-77
2022/05/10 13:51:56;;;;;;;3.20;2.50;;;26.50;71.00;;;;;;4825308;29;20664;-74
2022/05/10 13:54:28;;;;;;;5.43;2.33;;;26.70;68.10;;;;;;4825714;29;20238;-76
2022/05/10 13:57:12;;;;;;;3.07;2.60;;;26.70;65.70;;;;;;4825247;29;20304;-76
2022/05/10 13:59:40;;;;;;;3.73;2.47;;;26.40;70.80;;;;;;4824945;29;20277;-76
2022/05/10 14:02:14;;;;;;;4.83;2.93;;;26.20;63.20;;;;;;4825301;29;20236;-75
2022/05/10 14:04:45;;;;;;;3.50;2.80;;;26.10;67.00;;;;;;4824738;29;20228;-76
2022/05/10 14:07:16;;;;;;;5.67;2.70;;;25.90;68.40;;;;;;4826915;29;20212;-77
2022/05/10 14:09:47;;;;;;;10.00;3.00;;;26.10;70.30;;;;;;4825105;29;20235;-78
2022/05/10 14:12:26;;;;;;;6.50;3.20;;;26.30;68.30;;;;;;4824754;29;20282;-76
2022/05/10 14:14:58;;;;;;;4.43;3.10;;;26.30;66.50;;;;;;4825428;29;20204;-78
2022/05/10 14:17:27;;;;;;;3.63;2.80;;;26.20;69.60;;;;;;4825474;29;20216;-75
2022/05/10 14:19:56;;;;;;;5.60;3.10;;;25.80;69.10;;;;;;4825862;29;20719;-76
2022/05/10 14:22:27;;;;;;;3.90;2.97;;;25.90;71.10;;;;;;4824137;29;20239;-76
2022/05/10 14:24:55;;;;;;;3.83;3.20;;;25.90;73.00;;;;;;4823463;29;20224;-77
2022/05/10 14:27:26;;;;;;;3.83;3.20;;;25.90;72.60;;;;;;4824492;29;20770;-76
2022/05/10 14:29:57;;;;;;;4.87;2.87;;;25.90;69.00;;;;;;4823298;29;20220;-76
2022/05/10 14:32:36;;;;;;;5.50;3.57;;;25.80;73.10;;;;;;4823434;29;20215;-76
2022/05/10 14:35:07;;;;;;;5.57;3.30;;;25.60;69.80;;;;;;4824061;29;20204;-77
2022/05/10 14:37:49;;;;;;;3.63;3.20;;;25.60;74.40;;;;;;4823727;29;20220;-78
2022/05/10 14:40:36;;;;;;;4.70;3.07;;;25.80;70.30;;;;;;4825674;29;20240;-76
2022/05/10 14:43:11;;;;;;;4.20;3.07;;;25.50;69.60;;;;;;4826722;29;20225;-77
2022/05/10 14:45:43;;;;;;;6.40;3.80;;;25.40;72.00;;;;;;4838897;29;20226;-77
2022/05/10 14:48:45;;;;;;;3.30;3.00;;;25.50;69.20;;;;;;4845318;29;20334;-75
2022/05/10 14:51:36;;;;;;;3.30;3.00;;;25.50;68.30;;;;;;4832428;29;20242;-76
2022/05/10 14:54:08;;;;;;;4.97;2.90;;;25.60;72.60;;;;;;4845149;29;20208;-76
2022/05/10 14:56:41;;;;;;;6.00;3.07;;;25.70;69.30;;;;;;4841303;29;20663;-78
2022/05/10 14:59:22;;;;;;;3.70;2.70;;;25.50;68.20;;;;;;4841306;29;20610;-77
2022/05/10 15:01:51;;;;;;;5.60;3.03;;;25.40;64.00;;;;;;4841500;29;20674;-77
2022/05/10 15:04:35;;;;;;;4.03;3.03;;;25.40;70.60;;;;;;4841272;29;20242;-76
2022/05/10 15:07:03;;;;;;;3.27;2.70;;;25.20;64.60;;;;;;4841386;29;20253;-77
2022/05/10 15:09:32;;;;;;;3.70;2.83;;;24.90;68.00;;;;;;4840944;29;20308;-77
2022/05/10 15:14:48;;;;;;;3.43;3.03;;;24.90;65.70;;;;;;4842541;29;20287;-77
2022/05/10 15:17:17;;;;;;;2.90;2.60;;;24.90;67.60;;;;;;4844648;29;20314;-78
2022/05/10 15:19:46;;;;;;;5.47;2.50;;;24.90;65.50;;;;;;4844048;29;20260;-75
2022/05/10 15:22:15;;;;;;;3.67;3.00;;;25.00;66.80;;;;;;4844311;29;20265;-76
2022/05/10 15:24:44;;;;;;;6.40;2.70;;;24.90;71.00;;;;;;4848526;29;20258;-78
2022/05/10 15:27:18;;;;;;;6.43;3.00;;;24.80;70.40;;;;;;4844469;29;20238;-77
2022/05/10 15:29:47;;;;;;;4.00;2.87;;;24.60;71.20;;;;;;4844693;29;20239;-76
2022/05/10 15:32:17;;;;;;;6.50;3.10;;;24.20;71.30;;;;;;4844774;29;20302;-77
2022/05/10 15:34:46;;;;;;;3.60;2.83;;;24.30;73.40;;;;;;4844777;29;20204;-76
2022/05/10 15:37:16;;;;;;;4.60;2.90;;;24.20;69.40;;;;;;4844709;29;20303;-77
2022/05/10 15:39:44;;;;;;;4.90;2.70;;;24.00;68.80;;;;;;4844835;29;20219;-75
2022/05/10 15:42:18;;;;;;;5.83;2.60;;;24.20;71.30;;;;;;4843884;29;20741;-79
2022/05/10 15:44:47;;;;;;;6.63;2.90;;;24.20;68.90;;;;;;4843477;29;20812;-78
2022/05/10 15:47:20;;;;;;;3.37;2.47;;;24.10;68.80;;;;;;4843672;29;20581;-77
2022/05/10 15:49:55;;;;;;;5.67;2.70;;;24.10;67.30;;;;;;4843813;29;20245;-75
2022/05/10 15:52:24;;;;;;;3.90;3.00;;;24.00;65.80;;;;;;4843583;29;20219;-76
2022/05/10 15:54:52;;;;;;;4.83;2.53;;;24.00;67.90;;;;;;4843163;29;20218;-78
2022/05/10 15:57:21;;;;;;;5.13;2.30;;;23.80;65.50;;;;;;4841097;29;20282;-78
2022/05/10 15:59:50;;;;;;;3.17;2.50;;;23.90;66.50;;;;;;4843151;29;20208;-76
2022/05/10 16:02:20;;;;;;;3.27;2.43;;;23.90;64.30;;;;;;4843589;29;20304;-78
2022/05/10 16:04:50;;;;;;;3.57;2.50;;;23.90;68.00;;;;;;4842881;29;20250;-76
2022/05/10 16:07:19;;;;;;;3.00;2.53;;;24.00;69.20;;;;;;4843179;29;20311;-78
2022/05/10 16:09:47;;;;;;;4.00;2.40;;;24.10;68.00;;;;;;4843082;29;20219;-76
2022/05/10 16:12:17;;;;;;;3.67;2.70;;;24.00;65.70;;;;;;4843232;29;20274;-77
2022/05/10 16:14:45;;;;;;;2.53;2.33;;;23.80;66.30;;;;;;4843465;29;20196;-78
2022/05/10 16:17:13;;;;;;;3.50;2.50;;;23.70;68.00;;;;;;4842986;29;20642;-78
2022/05/10 16:20:02;;;;;;;4.03;2.50;;;23.70;69.00;;;;;;4843388;29;20204;-78
2022/05/10 16:22:30;;;;;;;3.57;2.47;;;23.60;69.70;;;;;;4842731;29;20306;-77
2022/05/10 16:24:58;;;;;;;2.80;2.40;;;23.70;71.00;;;;;;4843204;29;20293;-76
2022/05/10 16:30:13;;;;;;;3.33;2.50;;;23.40;73.50;;;;;;4842987;29;20215;-77
2022/05/10 16:32:42;;;;;;;4.47;2.60;;;23.20;74.00;;;;;;4843089;29;20307;-77
2022/05/10 16:35:12;;;;;;;3.33;2.47;;;23.10;74.60;;;;;;4842031;29;20239;-75
2022/05/10 16:37:40;;;;;;;5.97;2.20;;;23.00;74.50;;;;;;4842515;29;20243;-75
2022/05/10 16:40:09;;;;;;;5.57;2.40;;;23.00;71.90;;;;;;4842389;29;20244;-77
2022/05/10 16:42:38;;;;;;;2.53;2.33;;;23.00;70.40;;;;;;4842463;29;20304;-75
2022/05/10 16:45:09;;;;;;;4.63;2.63;;;23.00;68.80;;;;;;4842662;29;20231;-77
2022/05/10 16:47:39;;;;;;;3.80;2.47;;;23.00;71.70;;;;;;4842691;29;20238;-77
2022/05/10 16:50:09;;;;;;;5.33;2.27;;;22.90;70.70;;;;;;4842628;29;20254;-77
2022/05/10 16:52:41;;;;;;;4.80;2.53;;;22.80;69.60;;;;;;4843526;29;20264;-77
2022/05/10 16:55:11;;;;;;;4.13;2.40;;;22.70;72.30;;;;;;4842239;29;20235;-78
2022/05/10 16:57:39;;;;;;;4.00;2.47;;;22.70;70.90;;;;;;4842473;29;20299;-79
2022/05/10 17:00:12;;;;;;;4.67;2.77;;;22.70;74.00;;;;;;4842480;29;20247;-76
2022/05/10 17:02:41;;;;;;;4.93;2.87;;;22.50;75.20;;;;;;4845375;29;20200;-77
2022/05/10 17:05:11;;;;;;;3.60;2.60;;;22.50;73.50;;;;;;4843049;29;20714;-77
2022/05/10 17:07:41;;;;;;;3.50;2.60;;;22.40;76.00;;;;;;4842663;29;20314;-77
2022/05/10 17:10:12;;;;;;;3.33;2.27;;;22.30;73.20;;;;;;4842340;29;20211;-78
2022/05/10 17:12:40;;;;;;;3.87;2.50;;;22.20;72.50;;;;;;4842140;29;20729;-76
2022/05/10 17:15:09;;;;;;;6.77;2.53;;;22.00;78.40;;;;;;4841865;29;20617;-76
2022/05/10 17:17:38;;;;;;;4.53;2.60;;;21.80;76.70;;;;;;4841938;29;20226;-74
2022/05/10 17:20:13;;;;;;;3.10;2.80;;;21.60;82.80;;;;;;4841854;29;20220;-75
2022/05/10 17:22:45;;;;;;;5.03;2.70;;;21.50;81.50;;;;;;4842127;29;20242;-76
2022/05/10 17:25:16;;;;;;;5.70;2.80;;;21.40;81.40;;;;;;4841651;29;20820;-76
2022/05/10 17:27:56;;;;;;;4.40;2.80;;;21.30;81.20;;;;;;4842139;29;20224;-76
2022/05/10 17:30:26;;;;;;;4.63;2.80;;;21.10;81.00;;;;;;4841881;29;20223;-75
2022/05/10 17:32:55;;;;;;;3.50;2.90;;;21.10;82.40;;;;;;4841486;29;20653;-77
2022/05/10 17:35:23;;;;;;;5.10;2.80;;;20.90;82.50;;;;;;4841502;29;20243;-76
2022/05/10 17:37:53;;;;;;;4.00;2.90;;;20.80;84.20;;;;;;4840989;29;20246;-73
2022/05/10 17:40:21;;;;;;;5.37;3.10;;;20.70;84.50;;;;;;4841643;29;20243;-75
2022/05/10 17:42:50;;;;;;;4.93;2.80;;;20.60;84.70;;;;;;4841127;29;20756;-75